createdAt,value
2018-08-23T00:01:58.337Z,22.42
2018-08-23T00:04:28.774Z,22.41
2018-08-23T00:07:01.852Z,22.37
2018-08-23T00:09:36.664Z,22.37
2018-08-23T00:12:07.357Z,22.30
2018-08-23T00:14:36.966Z,22.27
2018-08-23T00:17:06.717Z,22.24
2018-08-23T00:19:37.649Z,22.27
2018-08-23T00:22:08.250Z,22.23
2018-08-23T00:24:39.119Z,22.14
2018-08-23T00:27:09.099Z,22.12
2018-08-23T00:29:40.071Z,22.03
2018-08-23T00:32:10.684Z,22.07
2018-08-23T00:34:41.052Z,22.04
2018-08-23T00:37:13.374Z,22.01
2018-08-23T00:39:43.243Z,22.01
2018-08-23T00:42:13.767Z,21.97
2018-08-23T00:44:55.865Z,21.94
2018-08-23T00:47:30.686Z,21.88
2018-08-23T00:50:00.928Z,21.81
2018-08-23T00:52:39.725Z,21.78
2018-08-23T00:55:15.828Z,21.73
2018-08-23T00:57:46.494Z,21.71
2018-08-23T01:00:20.581Z,21.70
2018-08-23T01:02:51.454Z,21.68
2018-08-23T01:05:26.451Z,21.68
2018-08-23T01:07:57.068Z,21.61
2018-08-23T01:10:27.690Z,21.57
2018-08-23T01:13:00.142Z,21.56
2018-08-23T01:15:31.449Z,21.53
2018-08-23T01:18:15.019Z,21.48
2018-08-23T01:20:46.181Z,21.45
2018-08-23T01:23:16.282Z,21.41
2018-08-23T01:25:48.092Z,21.40
2018-08-23T01:28:18.332Z,21.35
2018-08-23T01:30:49.050Z,21.36
2018-08-23T01:33:21.577Z,21.33
2018-08-23T01:35:52.588Z,21.31
2018-08-23T01:38:23.856Z,21.32
2018-08-23T01:40:59.701Z,21.29
2018-08-23T01:43:29.442Z,21.26
2018-08-23T01:45:59.765Z,21.22
2018-08-23T01:48:29.627Z,21.22
2018-08-23T01:50:59.076Z,21.18
2018-08-23T01:53:33.396Z,21.15
2018-08-23T01:56:03.319Z,21.11
2018-08-23T01:58:35.155Z,21.09
2018-08-23T02:01:13.845Z,21.07
2018-08-23T02:03:44.164Z,21.07
2018-08-23T02:06:15.396Z,21.05
2018-08-23T02:08:46.664Z,20.98
2018-08-23T02:11:16.776Z,20.97
2018-08-23T02:13:49.752Z,20.92
2018-08-23T02:16:21.588Z,20.87
2018-08-23T02:18:52.439Z,20.89
2018-08-23T02:21:22.383Z,20.84
2018-08-23T02:23:54.129Z,20.86
2018-08-23T02:26:24.211Z,20.83
2018-08-23T02:28:53.859Z,20.82
2018-08-23T02:31:24.293Z,20.83
2018-08-23T02:33:54.205Z,20.79
2018-08-23T02:36:24.942Z,20.78
2018-08-23T02:38:57.765Z,20.76
2018-08-23T02:41:27.925Z,20.75
2018-08-23T02:43:58.032Z,20.73
2018-08-23T02:46:28.912Z,20.69
2018-08-23T02:48:59.010Z,20.70
2018-08-23T02:51:40.566Z,20.70
2018-08-23T02:54:13.427Z,20.64
2018-08-23T02:56:48.257Z,20.63
2018-08-23T02:59:18.974Z,20.52
2018-08-23T03:01:49.877Z,20.53
2018-08-23T03:04:22.912Z,20.57
2018-08-23T03:06:54.900Z,20.59
2018-08-23T03:09:28.600Z,20.49
2018-08-23T03:12:00.887Z,20.44
2018-08-23T03:14:31.968Z,20.40
2018-08-23T03:17:38.647Z,20.44
2018-08-23T03:20:17.079Z,20.37
2018-08-23T03:22:48.743Z,20.32
2018-08-23T03:25:19.885Z,20.33
2018-08-23T03:27:50.166Z,20.45
2018-08-23T03:30:20.600Z,20.42
2018-08-23T03:32:51.282Z,20.48
2018-08-23T03:35:20.942Z,20.48
2018-08-23T03:37:52.007Z,20.49
2018-08-23T03:40:22.497Z,20.49
2018-08-23T03:42:52.866Z,20.45
2018-08-23T03:45:28.971Z,20.45
2018-08-23T03:47:59.330Z,20.41
2018-08-23T03:50:30.391Z,20.44
2018-08-23T03:53:01.496Z,20.44
2018-08-23T03:55:37.066Z,20.43
2018-08-23T03:58:06.821Z,20.41
2018-08-23T04:00:46.535Z,20.34
2018-08-23T04:03:20.340Z,20.30
2018-08-23T04:05:50.219Z,20.32
2018-08-23T04:08:22.853Z,20.31
2018-08-23T04:10:53.993Z,20.28
2018-08-23T04:13:23.946Z,20.30
2018-08-23T04:15:53.553Z,20.29
2018-08-23T04:18:23.852Z,20.29
2018-08-23T04:20:58.745Z,20.29
2018-08-23T04:23:28.563Z,20.18
2018-08-23T04:26:01.247Z,20.18
2018-08-23T04:28:31.280Z,20.17
2018-08-23T04:31:02.653Z,20.17
2018-08-23T04:33:32.545Z,20.15
2018-08-23T04:36:02.904Z,20.19
2018-08-23T04:38:33.310Z,20.15
2018-08-23T04:41:09.173Z,20.13
2018-08-23T04:43:39.128Z,20.19
2018-08-23T04:46:22.005Z,20.22
2018-08-23T04:48:51.718Z,19.94
2018-08-23T04:51:21.386Z,20.04
2018-08-23T04:53:51.766Z,20.03
2018-08-23T04:56:23.087Z,20.05
2018-08-23T04:58:52.774Z,20.00
2018-08-23T05:01:22.677Z,19.99
2018-08-23T05:03:53.160Z,19.91
2018-08-23T05:06:22.888Z,20.07
2018-08-23T05:08:52.402Z,20.12
2018-08-23T05:11:21.863Z,20.17
2018-08-23T05:13:53.388Z,20.19
2018-08-23T05:16:23.126Z,20.15
2018-08-23T05:18:54.210Z,20.18
2018-08-23T05:21:24.431Z,20.31
2018-08-23T05:23:58.688Z,20.28
2018-08-23T05:26:30.372Z,20.36
2018-08-23T05:29:04.470Z,20.25
2018-08-23T05:31:34.706Z,20.43
2018-08-23T05:34:09.093Z,20.45
2018-08-23T05:36:40.262Z,20.24
2018-08-23T05:39:11.981Z,20.53
2018-08-23T05:41:42.357Z,20.60
2018-08-23T05:44:21.759Z,20.68
2018-08-23T05:46:58.516Z,20.67
2018-08-23T05:49:31.941Z,20.61
2018-08-23T05:52:01.743Z,20.68
2018-08-23T05:54:33.399Z,20.81
2018-08-23T05:57:05.105Z,20.89
2018-08-23T05:59:35.998Z,20.90
2018-08-23T06:02:06.670Z,20.98
2018-08-23T06:04:43.225Z,21.05
2018-08-23T06:07:13.968Z,21.07
2018-08-23T06:09:48.264Z,21.15
2018-08-23T06:12:18.946Z,20.98
2018-08-23T06:14:49.425Z,20.94
2018-08-23T06:17:19.665Z,21.11
2018-08-23T06:19:50.028Z,21.27
2018-08-23T06:22:20.106Z,21.42
2018-08-23T06:24:50.943Z,21.60
2018-08-23T06:27:20.828Z,21.63
2018-08-23T06:29:51.235Z,21.63
2018-08-23T06:32:22.278Z,21.67
2018-08-23T06:34:53.188Z,21.68
2018-08-23T06:37:25.977Z,21.74
2018-08-23T06:39:57.855Z,21.69
2018-08-23T06:43:08.937Z,22.06
2018-08-23T06:45:40.254Z,22.04
2018-08-23T06:48:10.552Z,22.31
2018-08-23T06:50:49.038Z,22.56
2018-08-23T06:53:20.816Z,22.74
2018-08-23T06:55:50.740Z,22.93
2018-08-23T06:58:20.214Z,23.02
2018-08-23T07:00:53.246Z,23.17
2018-08-23T07:03:22.893Z,23.32
2018-08-23T07:05:52.404Z,23.37
2018-08-23T07:08:24.702Z,23.47
2018-08-23T07:11:02.016Z,23.63
2018-08-23T07:13:33.004Z,23.73
2018-08-23T07:16:03.995Z,23.91
2018-08-23T07:18:35.774Z,24.05
2018-08-23T07:21:09.031Z,24.25
2018-08-23T07:23:42.221Z,24.41
2018-08-23T07:26:18.301Z,24.58
2018-08-23T07:28:48.928Z,24.75
2018-08-23T07:31:20.204Z,24.87
2018-08-23T07:33:58.907Z,25.10
2018-08-23T07:36:33.910Z,25.30
2018-08-23T07:39:15.077Z,25.50
2018-08-23T07:42:19.031Z,25.59
2018-08-23T07:48:11.919Z,26.10
2018-08-23T07:50:55.182Z,26.22
2018-08-23T07:53:33.140Z,26.17
2018-08-23T07:56:14.682Z,26.44
2018-08-23T07:58:51.363Z,26.81
2018-08-23T08:01:31.469Z,26.94
2018-08-23T08:04:23.057Z,27.01
2018-08-23T08:06:56.488Z,27.23
2018-08-23T08:09:30.193Z,27.22
2018-08-23T08:12:05.740Z,27.43
2018-08-23T08:14:39.496Z,27.50
2018-08-23T08:17:23.425Z,27.53
2018-08-23T08:19:58.252Z,27.79
2018-08-23T08:22:29.741Z,27.97
2018-08-23T08:25:09.797Z,28.13
2018-08-23T08:27:40.928Z,28.20
2018-08-23T08:30:15.604Z,28.11
2018-08-23T08:32:46.179Z,27.97
2018-08-23T08:35:22.396Z,28.03
2018-08-23T08:37:55.691Z,28.23
2018-08-23T08:40:38.025Z,28.50
2018-08-23T08:43:16.793Z,28.56
2018-08-23T08:45:54.713Z,28.78
2018-08-23T08:48:36.837Z,28.89
2018-08-23T08:51:19.465Z,28.89
2018-08-23T08:53:49.137Z,28.94
2018-08-23T08:56:23.550Z,29.01
2018-08-23T08:58:53.292Z,29.10
2018-08-23T09:01:23.637Z,29.14
2018-08-23T09:03:53.062Z,29.29
2018-08-23T09:06:23.938Z,29.43
2018-08-23T09:08:53.931Z,29.69
2018-08-23T09:11:25.221Z,29.80
2018-08-23T09:13:54.994Z,29.88
2018-08-23T09:16:25.264Z,30.14
2018-08-23T09:19:00.583Z,30.30
2018-08-23T09:21:31.098Z,30.51
2018-08-23T09:24:38.906Z,30.58
2018-08-23T09:27:17.985Z,30.96
2018-08-23T09:29:48.448Z,31.09
2018-08-23T09:32:24.411Z,31.16
2018-08-23T09:35:05.815Z,31.31
2018-08-23T09:37:39.078Z,31.33
2018-08-23T09:40:09.390Z,31.37
2018-08-23T09:42:39.510Z,31.33
2018-08-23T09:45:15.711Z,31.39
2018-08-23T09:47:45.430Z,31.40
2018-08-23T09:50:15.651Z,31.25
2018-08-23T09:52:47.858Z,31.41
2018-08-23T09:55:19.286Z,31.60
2018-08-23T09:57:52.144Z,31.58
2018-08-23T10:00:30.382Z,31.60
2018-08-23T10:03:05.400Z,31.60
2018-08-23T10:05:45.966Z,31.60
2018-08-23T10:08:22.400Z,31.59
2018-08-23T10:10:57.178Z,31.78
2018-08-23T10:13:35.763Z,31.58
2018-08-23T10:16:13.873Z,31.70
2018-08-23T10:18:50.937Z,31.98
2018-08-23T10:21:26.405Z,32.12
2018-08-23T10:24:13.738Z,31.87
2018-08-23T10:26:44.301Z,31.99
2018-08-23T10:29:14.605Z,32.14
2018-08-23T10:31:45.165Z,32.34
2018-08-23T10:34:14.919Z,32.38
2018-08-23T10:36:45.050Z,32.29
2018-08-23T10:39:16.383Z,32.29
2018-08-23T10:41:46.222Z,32.23
2018-08-23T10:44:16.959Z,32.08
2018-08-23T10:47:01.596Z,32.24
2018-08-23T10:49:32.082Z,32.42
2018-08-23T10:52:04.254Z,32.52
2018-08-23T10:54:34.358Z,32.39
2018-08-23T10:57:11.134Z,32.46
2018-08-23T10:59:42.912Z,32.61
2018-08-23T11:02:13.527Z,32.56
2018-08-23T11:04:44.460Z,32.47
2018-08-23T11:07:16.365Z,32.67
2018-08-23T11:09:53.788Z,32.90
2018-08-23T11:12:30.609Z,33.14
2018-08-23T11:15:10.468Z,33.07
2018-08-23T11:17:57.503Z,33.17
2018-08-23T11:20:30.834Z,33.48
2018-08-23T11:23:04.828Z,33.56
2018-08-23T11:25:36.497Z,33.70
2018-08-23T11:28:12.416Z,33.69
2018-08-23T11:30:42.453Z,33.50
2018-08-23T11:33:12.289Z,33.26
2018-08-23T11:35:42.912Z,33.24
2018-08-23T11:38:12.704Z,33.33
2018-08-23T11:40:43.056Z,33.51
2018-08-23T11:43:12.993Z,33.73
2018-08-23T11:45:42.640Z,33.82
2018-08-23T11:48:19.250Z,33.83
2018-08-23T11:50:50.052Z,33.97
2018-08-23T11:53:20.739Z,34.14
2018-08-23T11:55:51.744Z,33.98
2018-08-23T11:58:22.155Z,33.84
2018-08-23T12:00:53.426Z,33.58
2018-08-23T12:03:24.081Z,33.54
2018-08-23T12:05:57.098Z,33.66
2018-08-23T12:08:34.765Z,33.51
2018-08-23T12:11:05.910Z,33.50
2018-08-23T12:13:37.126Z,33.75
2018-08-23T12:16:10.577Z,33.95
2018-08-23T12:18:40.150Z,34.00
2018-08-23T12:21:10.839Z,34.21
2018-08-23T12:23:40.437Z,34.11
2018-08-23T12:26:10.726Z,34.28
2018-08-23T12:28:45.178Z,34.03
2018-08-23T12:31:16.919Z,33.94
2018-08-23T12:33:52.235Z,33.81
2018-08-23T12:36:27.160Z,33.79
2018-08-23T12:39:06.362Z,33.62
2018-08-23T12:41:41.125Z,33.27
2018-08-23T12:44:11.397Z,33.08
2018-08-23T12:46:40.987Z,33.04
2018-08-23T12:49:11.138Z,33.09
2018-08-23T12:51:40.830Z,33.02
2018-08-23T12:54:10.229Z,32.95
2018-08-23T12:56:41.055Z,32.68
2018-08-23T12:59:11.146Z,32.46
2018-08-23T13:01:40.783Z,31.94
2018-08-23T13:04:10.563Z,31.60
2018-08-23T13:06:40.837Z,30.95
2018-08-23T13:09:10.357Z,30.53
2018-08-23T13:11:40.438Z,29.54
2018-08-23T13:14:09.845Z,29.27
2018-08-23T13:16:39.738Z,28.96
2018-08-23T13:19:10.087Z,28.68
2018-08-23T13:21:39.874Z,28.51
2018-08-23T13:24:10.282Z,28.21
2018-08-23T13:26:45.941Z,28.10
2018-08-23T13:29:16.126Z,27.75
2018-08-23T13:31:46.809Z,26.78
2018-08-23T13:34:17.295Z,26.20
2018-08-23T13:36:48.474Z,25.56
2018-08-23T13:39:21.276Z,25.30
2018-08-23T13:41:53.494Z,25.23
2018-08-23T13:44:23.164Z,25.14
2018-08-23T13:46:52.843Z,25.04
2018-08-23T13:49:23.350Z,25.00
2018-08-23T13:51:53.866Z,25.07
2018-08-23T13:54:26.540Z,25.18
2018-08-23T13:56:56.416Z,25.64
2018-08-23T13:59:27.072Z,25.75
2018-08-23T14:01:56.866Z,26.03
2018-08-23T14:04:26.467Z,26.43
2018-08-23T14:06:55.936Z,26.92
2018-08-23T14:09:25.491Z,27.53
2018-08-23T14:11:57.694Z,27.99
2018-08-23T14:14:30.496Z,28.43
2018-08-23T14:17:10.248Z,28.82
2018-08-23T14:19:40.440Z,29.35
2018-08-23T14:22:10.473Z,29.69
2018-08-23T14:24:40.073Z,30.07
2018-08-23T14:27:13.493Z,30.33
2018-08-23T14:29:46.822Z,30.50
2018-08-23T14:32:17.067Z,30.56
2018-08-23T14:34:47.981Z,30.69
2018-08-23T14:37:22.410Z,30.74
2018-08-23T14:39:53.250Z,30.87
2018-08-23T14:42:23.802Z,30.71
2018-08-23T14:44:54.551Z,30.44
2018-08-23T14:47:32.006Z,30.34
2018-08-23T14:50:03.153Z,30.06
2018-08-23T14:52:33.196Z,29.93
2018-08-23T14:55:03.686Z,29.75
2018-08-23T14:57:38.459Z,29.44
2018-08-23T15:00:08.556Z,29.19
2018-08-23T15:02:38.467Z,29.01
2018-08-23T15:05:08.736Z,29.10
2018-08-23T15:07:41.593Z,29.09
2018-08-23T15:10:15.959Z,29.32
2018-08-23T15:12:47.241Z,29.73
2018-08-23T15:15:19.099Z,29.90
2018-08-23T15:17:50.904Z,30.05
2018-08-23T15:20:21.503Z,30.03
2018-08-23T15:22:52.943Z,30.10
2018-08-23T15:25:28.483Z,30.06
2018-08-23T15:28:01.244Z,30.11
2018-08-23T15:30:35.980Z,30.30
2018-08-23T15:33:09.720Z,30.26
2018-08-23T15:35:39.952Z,30.16
2018-08-23T15:38:10.723Z,29.93
2018-08-23T15:40:41.917Z,29.60
2018-08-23T15:43:15.303Z,29.40
2018-08-23T15:45:45.606Z,29.12
2018-08-23T15:48:21.421Z,28.90
2018-08-23T15:50:54.421Z,28.95
2018-08-23T15:53:25.309Z,28.92
2018-08-23T15:55:56.959Z,28.78
2018-08-23T15:58:28.036Z,28.77
2018-08-23T16:00:58.085Z,28.69
2018-08-23T16:03:28.541Z,28.82
2018-08-23T16:06:01.509Z,29.16
2018-08-23T16:09:38.394Z,29.51
2018-08-23T16:12:10.497Z,29.70
2018-08-23T16:14:40.258Z,29.81
2018-08-23T16:17:15.119Z,30.11
2018-08-23T16:19:50.838Z,29.93
2018-08-23T16:22:22.562Z,30.05
2018-08-23T16:24:52.472Z,29.77
2018-08-23T16:27:22.820Z,29.67
2018-08-23T16:29:53.579Z,29.32
2018-08-23T16:32:31.007Z,29.19
2018-08-23T16:35:00.795Z,29.09
2018-08-23T16:37:32.502Z,29.14
2018-08-23T16:40:03.662Z,29.08
2018-08-23T16:42:33.620Z,28.99
2018-08-23T16:45:06.237Z,28.91
2018-08-23T16:47:36.646Z,28.89
2018-08-23T16:50:07.419Z,28.77
2018-08-23T16:52:37.027Z,28.62
2018-08-23T16:55:06.847Z,28.53
2018-08-23T16:57:36.563Z,28.41
2018-08-23T17:00:06.854Z,28.31
2018-08-23T17:02:37.049Z,28.30
2018-08-23T17:05:07.374Z,28.07
2018-08-23T17:07:39.012Z,28.12
2018-08-23T17:10:08.787Z,28.10
2018-08-23T17:12:38.763Z,28.03
2018-08-23T17:15:13.469Z,27.88
2018-08-23T17:17:49.118Z,27.93
2018-08-23T17:20:19.170Z,27.80
2018-08-23T17:22:50.456Z,27.75
2018-08-23T17:25:21.396Z,27.60
2018-08-23T17:27:52.130Z,27.50
2018-08-23T17:30:22.587Z,27.40
2018-08-23T17:32:53.008Z,27.30
2018-08-23T17:35:24.135Z,27.27
2018-08-23T17:37:54.998Z,27.20
2018-08-23T17:40:25.583Z,27.17
2018-08-23T17:42:56.590Z,27.10
2018-08-23T17:45:26.756Z,27.07
2018-08-23T17:47:59.598Z,26.98
2018-08-23T17:50:32.325Z,26.92
2018-08-23T17:53:03.055Z,26.81
2018-08-23T17:55:36.489Z,26.79
2018-08-23T17:58:06.222Z,26.73
2018-08-23T18:00:37.220Z,26.65
2018-08-23T18:03:08.442Z,26.57
2018-08-23T18:05:38.323Z,26.47
2018-08-23T18:08:08.300Z,26.41
2018-08-23T18:10:40.943Z,26.34
2018-08-23T18:13:11.566Z,26.35
2018-08-23T18:15:47.828Z,26.21
2018-08-23T18:18:18.533Z,26.21
2018-08-23T18:20:48.149Z,26.15
2018-08-23T18:23:19.052Z,26.07
2018-08-23T18:25:49.712Z,26.09
2018-08-23T18:28:21.156Z,26.01
2018-08-23T18:30:51.180Z,25.98
2018-08-23T18:33:22.725Z,25.90
2018-08-23T18:35:54.938Z,25.90
2018-08-23T18:38:26.295Z,25.85
2018-08-23T18:40:56.245Z,25.78
2018-08-23T18:43:27.276Z,25.79
2018-08-23T18:45:57.764Z,25.75
2018-08-23T18:48:29.010Z,25.68
2018-08-23T18:50:58.862Z,25.56
2018-08-23T18:53:30.962Z,25.56
2018-08-23T18:56:03.314Z,25.45
2018-08-23T18:58:33.259Z,25.40
2018-08-23T19:01:03.235Z,25.29
2018-08-23T19:03:36.070Z,25.30
2018-08-23T19:06:07.123Z,25.28
2018-08-23T19:08:38.379Z,25.25
2018-08-23T19:11:09.111Z,25.28
2018-08-23T19:13:39.291Z,25.26
2018-08-23T19:16:15.932Z,25.20
2018-08-23T19:18:46.638Z,25.26
2018-08-23T19:21:16.392Z,25.26
2018-08-23T19:23:45.933Z,25.22
2018-08-23T19:26:15.853Z,25.20
2018-08-23T19:28:45.745Z,25.15
2018-08-23T19:31:15.854Z,25.08
2018-08-23T19:33:45.647Z,24.99
2018-08-23T19:36:15.513Z,25.05
2018-08-23T19:38:45.216Z,25.01
2018-08-23T19:41:15.814Z,25.06
2018-08-23T19:43:50.897Z,25.05
2018-08-23T19:46:29.206Z,25.01
2018-08-23T19:49:04.437Z,24.90
2018-08-23T19:51:33.990Z,24.89
2018-08-23T19:54:03.815Z,24.89
2018-08-23T19:56:33.844Z,24.84
2018-08-23T19:59:03.931Z,24.90
2018-08-23T20:01:33.609Z,24.85
2018-08-23T20:04:03.580Z,24.87
2018-08-23T20:06:34.628Z,24.79
2018-08-23T20:09:05.746Z,24.79
2018-08-23T20:11:36.901Z,24.81
2018-08-23T20:14:07.310Z,24.79
2018-08-23T20:16:37.808Z,24.76
2018-08-23T20:19:07.457Z,24.62
2018-08-23T20:21:37.388Z,24.63
2018-08-23T20:24:07.602Z,24.60
2018-08-23T20:26:37.394Z,24.52
2018-08-23T20:29:09.040Z,24.52
2018-08-23T20:31:38.964Z,24.46
2018-08-23T20:34:09.915Z,24.46
2018-08-23T20:36:39.889Z,24.43
2018-08-23T20:39:13.136Z,24.38
2018-08-23T20:41:43.916Z,24.21
2018-08-23T20:44:14.731Z,24.01
2018-08-23T20:46:44.341Z,23.92
2018-08-23T20:49:14.299Z,24.00
2018-08-23T20:51:44.623Z,24.04
2018-08-23T20:54:14.170Z,24.07
2018-08-23T20:56:44.309Z,23.99
2018-08-23T20:59:14.398Z,24.00
2018-08-23T21:01:45.110Z,23.97
2018-08-23T21:04:14.857Z,23.98
2018-08-23T21:06:44.823Z,24.02
2018-08-23T21:09:14.630Z,24.04
2018-08-23T21:11:44.318Z,23.89
2018-08-23T21:14:14.343Z,23.81
2018-08-23T21:16:44.016Z,23.78
2018-08-23T21:19:13.514Z,23.75
2018-08-23T21:21:43.030Z,23.81
2018-08-23T21:24:12.672Z,23.89
2018-08-23T21:26:42.393Z,23.91
2018-08-23T21:29:12.454Z,23.87
2018-08-23T21:31:42.242Z,23.87
2018-08-23T21:34:11.782Z,23.91
2018-08-23T21:36:41.765Z,23.88
2018-08-23T21:39:11.249Z,23.78
2018-08-23T21:41:40.914Z,23.77
2018-08-23T21:44:11.408Z,23.81
2018-08-23T21:46:41.132Z,23.86
2018-08-23T21:49:10.623Z,23.84
2018-08-23T21:51:40.470Z,23.85
2018-08-23T21:54:15.210Z,23.79
2018-08-23T21:56:45.716Z,23.74
2018-08-23T21:59:15.968Z,23.73
2018-08-23T22:01:46.686Z,23.72
2018-08-23T22:04:16.722Z,23.70
2018-08-23T22:06:46.235Z,23.64
2018-08-23T22:09:18.503Z,23.60
2018-08-23T22:11:48.068Z,23.61
2018-08-23T22:14:17.511Z,23.65
2018-08-23T22:16:46.940Z,23.60
2018-08-23T22:19:16.837Z,23.57
2018-08-23T22:21:46.723Z,23.52
2018-08-23T22:24:16.449Z,23.51
2018-08-23T22:26:46.206Z,23.50
2018-08-23T22:29:16.878Z,23.46
2018-08-23T22:31:46.515Z,23.43
2018-08-23T22:34:16.812Z,23.44
2018-08-23T22:36:46.887Z,23.34
2018-08-23T22:39:16.900Z,23.45
2018-08-23T22:41:47.005Z,23.43
2018-08-23T22:44:17.356Z,23.42
2018-08-23T22:46:47.662Z,23.26
2018-08-23T22:49:17.238Z,23.32
2018-08-23T22:51:46.817Z,23.23
2018-08-23T22:54:16.999Z,23.18
2018-08-23T22:56:46.597Z,23.07
2018-08-23T22:59:16.553Z,23.04
2018-08-23T23:01:47.487Z,23.02
2018-08-23T23:04:28.541Z,23.08
2018-08-23T23:06:59.734Z,23.03
2018-08-23T23:09:30.967Z,23.07
2018-08-23T23:12:02.329Z,23.11
2018-08-23T23:14:31.938Z,23.08
2018-08-23T23:17:06.270Z,23.16
2018-08-23T23:19:35.817Z,23.22
2018-08-23T23:22:05.590Z,23.26
2018-08-23T23:24:40.475Z,23.24
2018-08-23T23:27:09.877Z,23.22
2018-08-23T23:29:39.333Z,23.18
2018-08-23T23:32:09.644Z,23.18
2018-08-23T23:34:39.148Z,23.10
2018-08-23T23:37:08.525Z,23.17
2018-08-23T23:39:38.988Z,23.08
2018-08-23T23:42:08.623Z,23.12
2018-08-23T23:44:38.395Z,23.05
2018-08-23T23:47:07.971Z,22.97
2018-08-23T23:49:37.489Z,22.78
2018-08-23T23:52:06.921Z,22.91
2018-08-23T23:54:36.487Z,22.97
2018-08-23T23:57:06.169Z,22.94
2018-08-23T23:59:36.754Z,22.88
